sensor_id;sensor_type;location;lat;lon;timestamp;pressure;altitude;pressure_sealevel;temperature
50206;BMP280;36098;48.390;10.856;2023-07-20T00:00:58;95877.81;;;26.56
50206;BMP280;36098;48.390;10.856;2023-07-20T00:03:23;95871.75;;;26.56
50206;BMP280;36098;48.390;10.856;2023-07-20T00:05:51;95868.00;;;26.57
50206;BMP280;36098;48.390;10.856;2023-07-20T00:08:18;95873.31;;;26.57
50206;BMP280;36098;48.390;10.856;2023-07-20T00:10:43;95873.31;;;26.57
50206;BMP280;36098;48.390;10.856;2023-07-20T00:13:09;95872.50;;;26.56
50206;BMP280;36098;48.390;10.856;2023-07-20T00:15:35;95870.19;;;26.55
50206;BMP280;36098;48.390;10.856;2023-07-20T00:18:00;95868.59;;;26.54
50206;BMP280;36098;48.390;10.856;2023-07-20T00:20:26;95864.06;;;26.54
50206;BMP280;36098;48.390;10.856;2023-07-20T00:22:51;95873.91;;;26.54
50206;BMP280;36098;48.390;10.856;2023-07-20T00:25:17;95865.66;;;26.55
50206;BMP280;36098;48.390;10.856;2023-07-20T00:27:43;95864.88;;;26.55
50206;BMP280;36098;48.390;10.856;2023-07-20T00:30:08;95871.75;;;26.56
50206;BMP280;36098;48.390;10.856;2023-07-20T00:32:34;95874.97;;;26.53
50206;BMP280;36098;48.390;10.856;2023-07-20T00:34:59;95879.69;;;26.56
50206;BMP280;36098;48.390;10.856;2023-07-20T00:37:24;95876.53;;;26.54
50206;BMP280;36098;48.390;10.856;2023-07-20T00:39:50;95879.47;;;26.52
50206;BMP280;36098;48.390;10.856;2023-07-20T00:42:16;95879.47;;;26.52
50206;BMP280;36098;48.390;10.856;2023-07-20T00:44:41;95879.19;;;26.54
50206;BMP280;36098;48.390;10.856;2023-07-20T00:47:06;95877.63;;;26.53
50206;BMP280;36098;48.390;10.856;2023-07-20T00:49:32;95877.63;;;26.53
50206;BMP280;36098;48.390;10.856;2023-07-20T00:51:59;95878.41;;;26.53
50206;BMP280;36098;48.390;10.856;2023-07-20T00:54:25;95877.63;;;26.53
50206;BMP280;36098;48.390;10.856;2023-07-20T00:56:51;95877.63;;;26.53
50206;BMP280;36098;48.390;10.856;2023-07-20T00:59:18;95878.19;;;26.50
50206;BMP280;36098;48.390;10.856;2023-07-20T01:01:43;95871.34;;;26.49
50206;BMP280;36098;48.390;10.856;2023-07-20T01:04:08;95872.91;;;26.50
50206;BMP280;36098;48.390;10.856;2023-07-20T01:06:53;95873.69;;;26.50
50206;BMP280;36098;48.390;10.856;2023-07-20T01:09:29;95883.50;;;26.50
50206;BMP280;36098;48.390;10.856;2023-07-20T01:12:02;95881.16;;;26.48
50206;BMP280;36098;48.390;10.856;2023-07-20T01:14:29;95884.56;;;26.49
50206;BMP280;36098;48.390;10.856;2023-07-20T01:16:54;95886.94;;;26.50
50206;BMP280;36098;48.390;10.856;2023-07-20T01:19:20;95879.47;;;26.52
50206;BMP280;36098;48.390;10.856;2023-07-20T01:21:53;95876.84;;;26.52
50206;BMP280;36098;48.390;10.856;2023-07-20T01:24:39;95880.06;;;26.49
50206;BMP280;36098;48.390;10.856;2023-07-20T01:32:54;95879.56;;;26.47
50206;BMP280;36098;48.390;10.856;2023-07-20T01:35:23;95888.31;;;26.48
50206;BMP280;36098;48.390;10.856;2023-07-20T01:37:49;95880.91;;;26.45
50206;BMP280;36098;48.390;10.856;2023-07-20T01:40:16;95890.16;;;26.47
50206;BMP280;36098;48.390;10.856;2023-07-20T01:42:45;95886.44;;;26.48
50206;BMP280;36098;48.390;10.856;2023-07-20T01:45:11;95888.31;;;26.48
50206;BMP280;36098;48.390;10.856;2023-07-20T01:47:37;95887.78;;;26.46
50206;BMP280;36098;48.390;10.856;2023-07-20T01:50:02;95892.00;;;26.47
50206;BMP280;36098;48.390;10.856;2023-07-20T01:52:27;95902.34;;;26.48
50206;BMP280;36098;48.390;10.856;2023-07-20T01:54:53;95888.31;;;26.48
50206;BMP280;36098;48.390;10.856;2023-07-20T01:57:18;95890.75;;;26.44
50206;BMP280;36098;48.390;10.856;2023-07-20T01:59:43;95892.50;;;26.49
50206;BMP280;36098;48.390;10.856;2023-07-20T02:02:09;95897.81;;;26.49
50206;BMP280;36098;48.390;10.856;2023-07-20T02:04:34;95887.78;;;26.46
50206;BMP280;36098;48.390;10.856;2023-07-20T02:06:59;95891.50;;;26.45
50206;BMP280;36098;48.390;10.856;2023-07-20T02:09:25;95885.13;;;26.46
50206;BMP280;36098;48.390;10.856;2023-07-20T02:11:50;95898.88;;;26.48
50206;BMP280;36098;48.390;10.856;2023-07-20T02:14:16;95896.53;;;26.46
50206;BMP280;36098;48.390;10.856;2023-07-20T02:16:41;95892.31;;;26.45
50206;BMP280;36098;48.390;10.856;2023-07-20T02:19:06;95897.28;;;26.47
50206;BMP280;36098;48.390;10.856;2023-07-20T02:21:32;95898.88;;;26.48
50206;BMP280;36098;48.390;10.856;2023-07-20T02:23:57;95891.50;;;26.45
50206;BMP280;36098;48.390;10.856;2023-07-20T02:26:23;95898.69;;;26.44
50206;BMP280;36098;48.390;10.856;2023-07-20T02:28:48;95889.94;;;26.44
50206;BMP280;36098;48.390;10.856;2023-07-20T02:31:13;95894.47;;;26.43
50206;BMP280;36098;48.390;10.856;2023-07-20T02:33:39;95896.03;;;26.44
50206;BMP280;36098;48.390;10.856;2023-07-20T02:36:04;95903.50;;;26.42
50206;BMP280;36098;48.390;10.856;2023-07-20T02:38:29;95888.66;;;26.41
50206;BMP280;36098;48.390;10.856;2023-07-20T02:40:54;95901.13;;;26.41
50206;BMP280;36098;48.390;10.856;2023-07-20T02:43:20;95900.31;;;26.40
50206;BMP280;36098;48.390;10.856;2023-07-20T02:45:45;95911.13;;;26.44
50206;BMP280;36098;48.390;10.856;2023-07-20T02:48:10;95898.97;;;26.43
50206;BMP280;36098;48.390;10.856;2023-07-20T02:50:35;95905.34;;;26.42
50206;BMP280;36098;48.390;10.856;2023-07-20T02:53:01;95910.34;;;26.43
50206;BMP280;36098;48.390;10.856;2023-07-20T02:55:27;95908.47;;;26.44
50206;BMP280;36098;48.390;10.856;2023-07-20T02:57:52;95911.44;;;26.42
50206;BMP280;36098;48.390;10.856;2023-07-20T03:00:17;95917.00;;;26.41
50206;BMP280;36098;48.390;10.856;2023-07-20T03:02:45;95915.13;;;26.41
50206;BMP280;36098;48.390;10.856;2023-07-20T03:05:13;95910.91;;;26.40
50206;BMP280;36098;48.390;10.856;2023-07-20T03:07:38;95912.47;;;26.41
50206;BMP280;36098;48.390;10.856;2023-07-20T03:10:04;95908.78;;;26.42
50206;BMP280;36098;48.390;10.856;2023-07-20T03:12:29;95917.50;;;26.43
50206;BMP280;36098;48.390;10.856;2023-07-20T03:14:54;95923.06;;;26.41
50206;BMP280;36098;48.390;10.856;2023-07-20T03:17:22;95914.63;;;26.39
50206;BMP280;36098;48.390;10.856;2023-07-20T03:19:47;95918.09;;;26.40
50206;BMP280;36098;48.390;10.856;2023-07-20T03:22:12;95920.72;;;26.40
50206;BMP280;36098;48.390;10.856;2023-07-20T03:24:37;95929.75;;;26.39
50206;BMP280;36098;48.390;10.856;2023-07-20T03:27:03;95926.03;;;26.40
50206;BMP280;36098;48.390;10.856;2023-07-20T03:29:28;95925.22;;;26.39
50206;BMP280;36098;48.390;10.856;2023-07-20T03:31:53;95936.63;;;26.40
50206;BMP280;36098;48.390;10.856;2023-07-20T03:34:18;95936.63;;;26.40
50206;BMP280;36098;48.390;10.856;2023-07-20T03:36:44;95939.25;;;26.40
50206;BMP280;36098;48.390;10.856;2023-07-20T03:39:09;95939.53;;;26.38
50206;BMP280;36098;48.390;10.856;2023-07-20T03:41:34;95941.69;;;26.36
50206;BMP280;36098;48.390;10.856;2023-07-20T03:44:00;95945.63;;;26.39
50206;BMP280;36098;48.390;10.856;2023-07-20T03:46:25;95938.78;;;26.38
50206;BMP280;36098;48.390;10.856;2023-07-20T03:48:50;95947.78;;;26.37
50206;BMP280;36098;48.390;10.856;2023-07-20T03:51:15;95951.69;;;26.39
50206;BMP280;36098;48.390;10.856;2023-07-20T03:53:41;95955.91;;;26.40
50206;BMP280;36098;48.390;10.856;2023-07-20T03:56:06;95951.41;;;26.41
50206;BMP280;36098;48.390;10.856;2023-07-20T03:58:31;95949.38;;;26.38
50206;BMP280;36098;48.390;10.856;2023-07-20T04:00:57;95952.78;;;26.38
50206;BMP280;36098;48.390;10.856;2023-07-20T04:03:22;95953.56;;;26.39
50206;BMP280;36098;48.390;10.856;2023-07-20T04:05:49;95958.88;;;26.39
50206;BMP280;36098;48.390;10.856;2023-07-20T04:08:15;95954.94;;;26.36
50206;BMP280;36098;48.390;10.856;2023-07-20T04:10:43;95957.59;;;26.36
50206;BMP280;36098;48.390;10.856;2023-07-20T04:13:09;95956.03;;;26.35
50206;BMP280;36098;48.390;10.856;2023-07-20T04:15:34;95949.94;;;26.35
50206;BMP280;36098;48.390;10.856;2023-07-20T04:17:59;95957.91;;;26.35
50206;BMP280;36098;48.390;10.856;2023-07-20T04:20:26;95958.66;;;26.35
50206;BMP280;36098;48.390;10.856;2023-07-20T04:22:51;95959.47;;;26.36
50206;BMP280;36098;48.390;10.856;2023-07-20T04:25:17;95963.97;;;26.35
50206;BMP280;36098;48.390;10.856;2023-07-20T04:27:43;95962.38;;;26.34
50206;BMP280;36098;48.390;10.856;2023-07-20T04:30:09;95961.63;;;26.34
50206;BMP280;36098;48.390;10.856;2023-07-20T04:32:35;95965.84;;;26.35
50206;BMP280;36098;48.390;10.856;2023-07-20T04:35:00;95978.00;;;26.36
50206;BMP280;36098;48.390;10.856;2023-07-20T04:37:26;95974.53;;;26.35
50206;BMP280;36098;48.390;10.856;2023-07-20T04:39:51;95975.63;;;26.34
50206;BMP280;36098;48.390;10.856;2023-07-20T04:42:16;95974.06;;;26.33
50206;BMP280;36098;48.390;10.856;2023-07-20T04:44:41;95972.97;;;26.34
50206;BMP280;36098;48.390;10.856;2023-07-20T04:47:07;95980.91;;;26.34
50206;BMP280;36098;48.390;10.856;2023-07-20T04:49:33;95980.91;;;26.34
50206;BMP280;36098;48.390;10.856;2023-07-20T04:51:59;95978.00;;;26.36
50206;BMP280;36098;48.390;10.856;2023-07-20T04:54:24;95980.53;;;26.41
50206;BMP280;36098;48.390;10.856;2023-07-20T04:56:49;95983.53;;;26.53
50206;BMP280;36098;48.390;10.856;2023-07-20T04:59:14;95990.00;;;26.60
50206;BMP280;36098;48.390;10.856;2023-07-20T05:01:40;95988.63;;;26.49
50206;BMP280;36098;48.390;10.856;2023-07-20T05:04:06;95986.19;;;26.53
50206;BMP280;36098;48.390;10.856;2023-07-20T05:06:31;95991.13;;;26.41
50206;BMP280;36098;48.390;10.856;2023-07-20T05:08:56;95998.38;;;26.35
50206;BMP280;36098;48.390;10.856;2023-07-20T05:11:22;95996.31;;;26.32
50206;BMP280;36098;48.390;10.856;2023-07-20T05:13:47;95993.66;;;26.32
50206;BMP280;36098;48.390;10.856;2023-07-20T05:16:12;95984.84;;;26.37
50206;BMP280;36098;48.390;10.856;2023-07-20T05:18:38;95990.16;;;26.37
50206;BMP280;36098;48.390;10.856;2023-07-20T05:21:05;95997.59;;;26.35
50206;BMP280;36098;48.390;10.856;2023-07-20T05:23:30;95984.75;;;26.42
50206;BMP280;36098;48.390;10.856;2023-07-20T05:25:57;95991.81;;;26.33
50206;BMP280;36098;48.390;10.856;2023-07-20T05:28:23;95986.22;;;26.34
50206;BMP280;36098;48.390;10.856;2023-07-20T05:30:50;96001.69;;;26.27
50206;BMP280;36098;48.390;10.856;2023-07-20T05:33:17;95998.19;;;26.32
50206;BMP280;36098;48.390;10.856;2023-07-20T05:35:42;95992.09;;;26.31
50206;BMP280;36098;48.390;10.856;2023-07-20T05:38:08;95992.47;;;26.25
50206;BMP280;36098;48.390;10.856;2023-07-20T05:40:33;95993.34;;;26.20
50206;BMP280;36098;48.390;10.856;2023-07-20T05:42:58;95994.50;;;26.14
50206;BMP280;36098;48.390;10.856;2023-07-20T05:45:25;96001.84;;;26.17
50206;BMP280;36098;48.390;10.856;2023-07-20T05:47:50;96001.84;;;26.17
50206;BMP280;36098;48.390;10.856;2023-07-20T05:50:16;96004.47;;;26.04
50206;BMP280;36098;48.390;10.856;2023-07-20T05:52:41;96010.69;;;26.13
50206;BMP280;36098;48.390;10.856;2023-07-20T05:55:07;96007.50;;;26.11
50206;BMP280;36098;48.390;10.856;2023-07-20T05:57:33;96011.25;;;26.10
50206;BMP280;36098;48.390;10.856;2023-07-20T05:59:58;95999.88;;;26.09
50206;BMP280;36098;48.390;10.856;2023-07-20T06:02:24;96006.34;;;26.03
50206;BMP280;36098;48.390;10.856;2023-07-20T06:04:49;95998.31;;;26.08
50206;BMP280;36098;48.390;10.856;2023-07-20T06:07:15;96008.09;;;26.08
50206;BMP280;36098;48.390;10.856;2023-07-20T06:09:40;95996.44;;;26.09
50206;BMP280;36098;48.390;10.856;2023-07-20T06:12:06;96005.31;;;25.99
50206;BMP280;36098;48.390;10.856;2023-07-20T06:14:31;96001.06;;;26.03
50206;BMP280;36098;48.390;10.856;2023-07-20T06:16:56;96007.28;;;25.94
50206;BMP280;36098;48.390;10.856;2023-07-20T06:19:22;96003.00;;;25.98
50206;BMP280;36098;48.390;10.856;2023-07-20T06:21:47;96000.63;;;25.96
50206;BMP280;36098;48.390;10.856;2023-07-20T06:24:14;96005.63;;;25.98
50206;BMP280;36098;48.390;10.856;2023-07-20T06:26:39;96007.13;;;26.04
50206;BMP280;36098;48.390;10.856;2023-07-20T06:29:05;96006.13;;;26.00
50206;BMP280;36098;48.390;10.856;2023-07-20T06:31:40;96002.94;;;25.84
50206;BMP280;36098;48.390;10.856;2023-07-20T06:34:05;96001.13;;;25.80
50206;BMP280;36098;48.390;10.856;2023-07-20T06:36:30;96003.84;;;25.75
50206;BMP280;36098;48.390;10.856;2023-07-20T06:38:56;96000.63;;;25.78
50206;BMP280;36098;48.390;10.856;2023-07-20T06:41:21;96001.06;;;25.85
50206;BMP280;36098;48.390;10.856;2023-07-20T06:43:47;96010.56;;;25.86
50206;BMP280;36098;48.390;10.856;2023-07-20T06:46:12;96004.78;;;25.84
50206;BMP280;36098;48.390;10.856;2023-07-20T06:48:38;95998.97;;;25.82
50206;BMP280;36098;48.390;10.856;2023-07-20T06:51:03;95999.22;;;25.85
50206;BMP280;36098;48.390;10.856;2023-07-20T06:53:29;95997.84;;;25.88
50206;BMP280;36098;48.390;10.856;2023-07-20T06:55:55;96009.00;;;25.85
50206;BMP280;36098;48.390;10.856;2023-07-20T06:58:22;96004.78;;;25.84
50206;BMP280;36098;48.390;10.856;2023-07-20T07:00:48;96015.88;;;25.86
50206;BMP280;36098;48.390;10.856;2023-07-20T07:03:13;96014.28;;;25.85
50206;BMP280;36098;48.390;10.856;2023-07-20T07:05:38;96011.38;;;25.86
50206;BMP280;36098;48.390;10.856;2023-07-20T07:08:04;96006.84;;;25.87
50206;BMP280;36098;48.390;10.856;2023-07-20T07:10:30;96009.50;;;25.87
50206;BMP280;36098;48.390;10.856;2023-07-20T07:12:55;95996.28;;;25.87
50206;BMP280;36098;48.390;10.856;2023-07-20T07:15:20;96000.47;;;25.88
50206;BMP280;36098;48.390;10.856;2023-07-20T07:17:46;96006.84;;;25.87
50206;BMP280;36098;48.390;10.856;2023-07-20T07:20:11;96003.13;;;25.88
50206;BMP280;36098;48.390;10.856;2023-07-20T07:22:36;96001.78;;;25.90
50206;BMP280;36098;48.390;10.856;2023-07-20T07:25:02;96008.63;;;25.91
50206;BMP280;36098;48.390;10.856;2023-07-20T07:27:28;96014.91;;;25.95
50206;BMP280;36098;48.390;10.856;2023-07-20T07:29:53;96000.63;;;25.96
50206;BMP280;36098;48.390;10.856;2023-07-20T07:32:19;96008.78;;;26.00
50206;BMP280;36098;48.390;10.856;2023-07-20T07:34:44;95992.69;;;26.42
50206;BMP280;36098;48.390;10.856;2023-07-20T07:37:11;96012.56;;;26.26
50206;BMP280;36098;48.390;10.856;2023-07-20T07:39:37;96002.53;;;26.09
50206;BMP280;36098;48.390;10.856;2023-07-20T07:42:02;96008.28;;;25.98
50206;BMP280;36098;48.390;10.856;2023-07-20T07:44:27;96000.63;;;25.96
50206;BMP280;36098;48.390;10.856;2023-07-20T07:46:53;96002.19;;;25.97
50206;BMP280;36098;48.390;10.856;2023-07-20T07:49:18;95998.47;;;25.98
50206;BMP280;36098;48.390;10.856;2023-07-20T07:51:44;95997.69;;;25.98
50206;BMP280;36098;48.390;10.856;2023-07-20T07:54:09;95999.75;;;26.01
50206;BMP280;36098;48.390;10.856;2023-07-20T07:56:35;95999.75;;;26.01
50206;BMP280;36098;48.390;10.856;2023-07-20T07:59:00;96002.41;;;26.01
50206;BMP280;36098;48.390;10.856;2023-07-20T08:01:25;95996.53;;;26.04
50206;BMP280;36098;48.390;10.856;2023-07-20T08:03:50;95999.66;;;26.06
50206;BMP280;36098;48.390;10.856;2023-07-20T08:06:16;96001.06;;;26.03
50206;BMP280;36098;48.390;10.856;2023-07-20T08:08:41;96005.75;;;26.06
50206;BMP280;36098;48.390;10.856;2023-07-20T08:11:07;96007.50;;;26.11
50206;BMP280;36098;48.390;10.856;2023-07-20T08:13:33;96005.25;;;26.04
50206;BMP280;36098;48.390;10.856;2023-07-20T08:15:58;96004.47;;;26.04
50206;BMP280;36098;48.390;10.856;2023-07-20T08:18:24;96006.53;;;26.07
50206;BMP280;36098;48.390;10.856;2023-07-20T08:20:49;96002.41;;;26.01
50206;BMP280;36098;48.390;10.856;2023-07-20T08:23:15;95996.75;;;26.07
50206;BMP280;36098;48.390;10.856;2023-07-20T08:25:41;96004.69;;;26.07
50206;BMP280;36098;48.390;10.856;2023-07-20T08:28:10;96002.97;;;26.30
50206;BMP280;36098;48.390;10.856;2023-07-20T08:30:43;95995.97;;;26.52
50206;BMP280;36098;48.390;10.856;2023-07-20T08:33:18;96006.78;;;26.24
50206;BMP280;36098;48.390;10.856;2023-07-20T08:35:47;96004.34;;;25.95
50206;BMP280;36098;48.390;10.856;2023-07-20T08:38:12;96013.41;;;25.71
50206;BMP280;36098;48.390;10.856;2023-07-20T08:40:40;96003.94;;;25.51
50206;BMP280;36098;48.390;10.856;2023-07-20T08:43:05;96009.06;;;25.61
50206;BMP280;36098;48.390;10.856;2023-07-20T08:45:33;96009.59;;;25.63
50206;BMP280;36098;48.390;10.856;2023-07-20T08:48:01;96007.94;;;25.67
50206;BMP280;36098;48.390;10.856;2023-07-20T08:50:30;96004.47;;;25.67
50206;BMP280;36098;48.390;10.856;2023-07-20T08:52:57;96007.78;;;25.59
50206;BMP280;36098;48.390;10.856;2023-07-20T08:55:24;96006.06;;;25.49
50206;BMP280;36098;48.390;10.856;2023-07-20T08:57:57;95999.50;;;25.28
50206;BMP280;36098;48.390;10.856;2023-07-20T09:00:23;95998.06;;;25.36
50206;BMP280;36098;48.390;10.856;2023-07-20T09:02:55;95994.34;;;25.37
50206;BMP280;36098;48.390;10.856;2023-07-20T09:05:22;95993.78;;;25.40
50206;BMP280;36098;48.390;10.856;2023-07-20T09:07:49;95986.13;;;25.38
50206;BMP280;36098;48.390;10.856;2023-07-20T09:10:14;95989.13;;;25.32
50206;BMP280;36098;48.390;10.856;2023-07-20T09:12:42;95985.84;;;25.40
50206;BMP280;36098;48.390;10.856;2023-07-20T09:15:09;95998.13;;;25.49
50206;BMP280;36098;48.390;10.856;2023-07-20T09:17:35;95988.06;;;25.51
50206;BMP280;36098;48.390;10.856;2023-07-20T09:20:04;95991.19;;;25.53
50206;BMP280;36098;48.390;10.856;2023-07-20T09:22:34;95985.78;;;25.63
50206;BMP280;36098;48.390;10.856;2023-07-20T09:24:59;95985.38;;;25.70
50206;BMP280;36098;48.390;10.856;2023-07-20T09:27:38;95987.53;;;25.68
50206;BMP280;36098;48.390;10.856;2023-07-20T09:30:04;95996.47;;;25.72
50206;BMP280;36098;48.390;10.856;2023-07-20T09:32:30;95976.31;;;25.76
50206;BMP280;36098;48.390;10.856;2023-07-20T09:34:55;95978.41;;;25.79
50206;BMP280;36098;48.390;10.856;2023-07-20T09:37:21;95983.25;;;25.72
50206;BMP280;36098;48.390;10.856;2023-07-20T09:39:48;95982.69;;;25.75
50206;BMP280;36098;48.390;10.856;2023-07-20T09:42:15;95977.13;;;25.58
50206;BMP280;36098;48.390;10.856;2023-07-20T09:44:43;95984.56;;;25.56
50206;BMP280;36098;48.390;10.856;2023-07-20T09:47:09;95973.59;;;25.62
50206;BMP280;36098;48.390;10.856;2023-07-20T09:49:39;95973.59;;;25.62
50206;BMP280;36098;48.390;10.856;2023-07-20T09:52:05;95976.91;;;25.91
50206;BMP280;36098;48.390;10.856;2023-07-20T09:54:31;95970.25;;;25.94
50206;BMP280;36098;48.390;10.856;2023-07-20T09:56:58;95966.69;;;25.85
50206;BMP280;36098;48.390;10.856;2023-07-20T09:59:23;95972.34;;;26.10
50206;BMP280;36098;48.390;10.856;2023-07-20T10:01:49;95975.22;;;26.14
50206;BMP280;36098;48.390;10.856;2023-07-20T10:04:16;95958.66;;;26.22
50206;BMP280;36098;48.390;10.856;2023-07-20T10:06:42;95954.34;;;26.26
50206;BMP280;36098;48.390;10.856;2023-07-20T10:09:10;95962.72;;;26.01
50206;BMP280;36098;48.390;10.856;2023-07-20T10:11:42;95957.34;;;26.06
50206;BMP280;36098;48.390;10.856;2023-07-20T10:14:08;95955.66;;;26.10
50206;BMP280;36098;48.390;10.856;2023-07-20T10:16:39;95963.06;;;26.13
50206;BMP280;36098;48.390;10.856;2023-07-20T10:19:24;95952.88;;;26.20
50206;BMP280;36098;48.390;10.856;2023-07-20T10:21:59;95945.31;;;26.27
50206;BMP280;36098;48.390;10.856;2023-07-20T10:24:27;95944.16;;;26.33
50206;BMP280;36098;48.390;10.856;2023-07-20T10:26:55;95948.19;;;26.44
50206;BMP280;36098;48.390;10.856;2023-07-20T10:29:21;95942.59;;;26.45
50206;BMP280;36098;48.390;10.856;2023-07-20T10:31:47;95942.53;;;26.50
50206;BMP280;36098;48.390;10.856;2023-07-20T10:34:13;95945.97;;;26.51
50206;BMP280;36098;48.390;10.856;2023-07-20T10:36:44;95941.19;;;26.53
50206;BMP280;36098;48.390;10.856;2023-07-20T10:39:24;95936.84;;;26.57
50206;BMP280;36098;48.390;10.856;2023-07-20T10:41:59;95939.88;;;26.64
50206;BMP280;36098;48.390;10.856;2023-07-20T10:44:25;95932.44;;;26.66
50206;BMP280;36098;48.390;10.856;2023-07-20T10:46:58;95923.88;;;26.69
50206;BMP280;36098;48.390;10.856;2023-07-20T10:49:24;95935.94;;;26.48
50206;BMP280;36098;48.390;10.856;2023-07-20T10:51:57;95926.94;;;26.76
50206;BMP280;36098;48.390;10.856;2023-07-20T10:56:49;95923.75;;;26.20
50206;BMP280;36098;48.390;10.856;2023-07-20T10:59:19;95929.56;;;26.49
50206;BMP280;36098;48.390;10.856;2023-07-20T11:01:45;95929.00;;;26.65
50206;BMP280;36098;48.390;10.856;2023-07-20T11:04:12;95921.44;;;26.72
50206;BMP280;36098;48.390;10.856;2023-07-20T11:06:37;95923.81;;;26.74
50206;BMP280;36098;48.390;10.856;2023-07-20T11:09:09;95926.25;;;26.57
50206;BMP280;36098;48.390;10.856;2023-07-20T11:11:42;95918.81;;;26.59
50206;BMP280;36098;48.390;10.856;2023-07-20T11:14:09;95921.56;;;26.54
50206;BMP280;36098;48.390;10.856;2023-07-20T11:16:43;95914.19;;;26.64
50206;BMP280;36098;48.390;10.856;2023-07-20T11:19:20;95920.84;;;26.75
50206;BMP280;36098;48.390;10.856;2023-07-20T11:21:50;95916.03;;;26.91
50206;BMP280;36098;48.390;10.856;2023-07-20T11:24:15;95920.94;;;26.84
50206;BMP280;36098;48.390;10.856;2023-07-20T11:29:06;95912.56;;;27.17
50206;BMP280;36098;48.390;10.856;2023-07-20T11:31:35;95908.09;;;26.91
50206;BMP280;36098;48.390;10.856;2023-07-20T11:34:01;95905.63;;;26.94
50206;BMP280;36098;48.390;10.856;2023-07-20T11:36:26;95911.53;;;26.78
50206;BMP280;36098;48.390;10.856;2023-07-20T11:38:51;95902.31;;;26.62
50206;BMP280;36098;48.390;10.856;2023-07-20T11:41:17;95894.25;;;26.80
50206;BMP280;36098;48.390;10.856;2023-07-20T11:43:42;95901.72;;;26.92
50206;BMP280;36098;48.390;10.856;2023-07-20T11:46:08;95892.47;;;26.89
50206;BMP280;36098;48.390;10.856;2023-07-20T11:48:34;95891.13;;;26.65
50206;BMP280;36098;48.390;10.856;2023-07-20T11:50:59;95889.59;;;26.50
50206;BMP280;36098;48.390;10.856;2023-07-20T11:53:25;95881.91;;;26.35
50206;BMP280;36098;48.390;10.856;2023-07-20T11:55:51;95882.63;;;26.54
50206;BMP280;36098;48.390;10.856;2023-07-20T11:58:16;95879.31;;;26.98
50206;BMP280;36098;48.390;10.856;2023-07-20T12:00:44;95872.50;;;26.83
50206;BMP280;36098;48.390;10.856;2023-07-20T12:03:09;95868.78;;;26.57
50206;BMP280;36098;48.390;10.856;2023-07-20T12:05:37;95877.13;;;26.51
50206;BMP280;36098;48.390;10.856;2023-07-20T12:08:03;95877.28;;;26.41
50206;BMP280;36098;48.390;10.856;2023-07-20T12:10:28;95868.56;;;26.40
50206;BMP280;36098;48.390;10.856;2023-07-20T12:12:54;95865.91;;;26.40
50206;BMP280;36098;48.390;10.856;2023-07-20T12:15:25;95869.16;;;26.51
50206;BMP280;36098;48.390;10.856;2023-07-20T12:18:00;95866.63;;;26.59
50206;BMP280;36098;48.390;10.856;2023-07-20T12:23:02;95869.16;;;26.24
50206;BMP280;36098;48.390;10.856;2023-07-20T12:28:04;95866.69;;;26.68
50206;BMP280;36098;48.390;10.856;2023-07-20T12:30:29;95866.88;;;26.85
50206;BMP280;36098;48.390;10.856;2023-07-20T12:32:54;95864.47;;;26.61
50206;BMP280;36098;48.390;10.856;2023-07-20T12:35:20;95852.19;;;26.25
50206;BMP280;36098;48.390;10.856;2023-07-20T12:37:45;95846.78;;;26.30
50206;BMP280;36098;48.390;10.856;2023-07-20T12:40:14;95847.88;;;26.02
50206;BMP280;36098;48.390;10.856;2023-07-20T12:42:39;95841.50;;;26.03
50206;BMP280;36098;48.390;10.856;2023-07-20T12:45:05;95840.31;;;26.09
50206;BMP280;36098;48.390;10.856;2023-07-20T12:47:31;95837.41;;;25.97
50206;BMP280;36098;48.390;10.856;2023-07-20T12:49:56;95835.03;;;26.09
50206;BMP280;36098;48.390;10.856;2023-07-20T12:52:21;95826.03;;;26.37
50206;BMP280;36098;48.390;10.856;2023-07-20T12:54:46;95822.78;;;26.40
50206;BMP280;36098;48.390;10.856;2023-07-20T12:57:12;95821.22;;;26.25
50206;BMP280;36098;48.390;10.856;2023-07-20T12:59:37;95823.31;;;26.15
50206;BMP280;36098;48.390;10.856;2023-07-20T13:02:03;95828.09;;;26.13
50206;BMP280;36098;48.390;10.856;2023-07-20T13:04:28;95825.84;;;26.20
50206;BMP280;36098;48.390;10.856;2023-07-20T13:06:53;95820.94;;;26.27
50206;BMP280;36098;48.390;10.856;2023-07-20T13:09:19;95818.59;;;26.25
50206;BMP280;36098;48.390;10.856;2023-07-20T13:11:45;95815.56;;;26.32
50206;BMP280;36098;48.390;10.856;2023-07-20T13:14:11;95822.69;;;26.45
50206;BMP280;36098;48.390;10.856;2023-07-20T13:16:37;95813.47;;;26.42
50206;BMP280;36098;48.390;10.856;2023-07-20T13:19:02;95810.16;;;26.37
50206;BMP280;36098;48.390;10.856;2023-07-20T13:21:27;95816.03;;;26.61
50206;BMP280;36098;48.390;10.856;2023-07-20T13:23:53;95806.38;;;26.65
50206;BMP280;36098;48.390;10.856;2023-07-20T13:26:18;95805.03;;;26.40
50206;BMP280;36098;48.390;10.856;2023-07-20T13:28:43;95796.97;;;26.72
50206;BMP280;36098;48.390;10.856;2023-07-20T13:31:09;95808.38;;;26.32
50206;BMP280;36098;48.390;10.856;2023-07-20T13:33:36;95796.81;;;26.42
50206;BMP280;36098;48.390;10.856;2023-07-20T13:36:01;95793.00;;;26.21
50206;BMP280;36098;48.390;10.856;2023-07-20T13:38:27;95784.47;;;26.24
50206;BMP280;36098;48.390;10.856;2023-07-20T13:40:52;95784.25;;;26.20
50206;BMP280;36098;48.390;10.856;2023-07-20T13:43:17;95789.28;;;26.22
50206;BMP280;36098;48.390;10.856;2023-07-20T13:45:42;95786.84;;;26.25
50206;BMP280;36098;48.390;10.856;2023-07-20T13:48:08;95785.44;;;26.28
50206;BMP280;36098;48.390;10.856;2023-07-20T13:50:33;95777.97;;;26.30
50206;BMP280;36098;48.390;10.856;2023-07-20T13:52:59;95774.56;;;26.29
50206;BMP280;36098;48.390;10.856;2023-07-20T13:55:24;95771.75;;;26.12
50206;BMP280;36098;48.390;10.856;2023-07-20T13:57:49;95768.09;;;26.22
50206;BMP280;36098;48.390;10.856;2023-07-20T14:00:16;95762.94;;;26.66
50206;BMP280;36098;48.390;10.856;2023-07-20T14:02:41;95771.00;;;26.61
50206;BMP280;36098;48.390;10.856;2023-07-20T14:05:07;95755.38;;;26.73
50206;BMP280;36098;48.390;10.856;2023-07-20T14:07:33;95751.25;;;26.67